sensor_id;sensor_type;location;lat;lon;timestamp;pressure;altitude;pressure_sealevel;temperature;humidity
8941;BME280;4505;43.406;23.226;2023-11-18T00:01:23;99279.75;;;8.21;100.00
8941;BME280;4505;43.406;23.226;2023-11-18T00:03:50;99283.88;;;8.17;100.00
8941;BME280;4505;43.406;23.226;2023-11-18T00:06:17;99280.06;;;8.13;100.00
8941;BME280;4505;43.406;23.226;2023-11-18T00:08:43;99269.50;;;8.13;100.00
8941;BME280;4505;43.406;23.226;2023-11-18T00:11:10;99253.72;;;8.06;100.00
8941;BME280;4505;43.406;23.226;2023-11-18T00:13:38;99245.94;;;8.11;100.00
8941;BME280;4505;43.406;23.226;2023-11-18T00:16:09;99242.69;;;8.09;100.00
8941;BME280;4505;43.406;23.226;2023-11-18T00:18:37;99237.41;;;8.09;100.00
8941;BME280;4505;43.406;23.226;2023-11-18T00:21:04;99239.16;;;8.04;100.00
8941;BME280;4505;43.406;23.226;2023-11-18T00:23:31;99237.63;;;8.08;100.00
8941;BME280;4505;43.406;23.226;2023-11-18T00:25:58;99236.63;;;8.09;100.00
8941;BME280;4505;43.406;23.226;2023-11-18T00:28:24;99239.97;;;8.04;100.00
8941;BME280;4505;43.406;23.226;2023-11-18T00:30:51;99232.25;;;8.03;100.00
8941;BME280;4505;43.406;23.226;2023-11-18T00:33:19;99238.06;;;7.93;100.00
8941;BME280;4505;43.406;23.226;2023-11-18T00:35:45;99234.53;;;7.88;100.00
8941;BME280;4505;43.406;23.226;2023-11-18T00:38:12;99224.47;;;8.54;100.00
8941;BME280;4505;43.406;23.226;2023-11-18T00:40:38;99235.13;;;8.82;100.00
8941;BME280;4505;43.406;23.226;2023-11-18T00:43:05;99236.41;;;8.91;100.00
8941;BME280;4505;43.406;23.226;2023-11-18T00:45:33;99228.16;;;9.04;100.00
8941;BME280;4505;43.406;23.226;2023-11-18T00:48:00;99226.06;;;8.66;100.00
8941;BME280;4505;43.406;23.226;2023-11-18T00:50:28;99229.84;;;8.13;100.00
8941;BME280;4505;43.406;23.226;2023-11-18T00:52:54;99222.34;;;8.10;100.00
8941;BME280;4505;43.406;23.226;2023-11-18T00:55:21;99233.41;;;8.07;100.00
8941;BME280;4505;43.406;23.226;2023-11-18T00:57:47;99234.91;;;8.03;100.00
8941;BME280;4505;43.406;23.226;2023-11-18T01:00:14;99219.69;;;7.98;100.00
8941;BME280;4505;43.406;23.226;2023-11-18T01:02:41;99229.34;;;7.93;100.00
8941;BME280;4505;43.406;23.226;2023-11-18T01:05:08;99235.66;;;7.92;100.00
8941;BME280;4505;43.406;23.226;2023-11-18T01:07:37;99235.19;;;7.83;100.00
8941;BME280;4505;43.406;23.226;2023-11-18T01:10:04;99239.78;;;7.76;100.00
8941;BME280;4505;43.406;23.226;2023-11-18T01:12:31;99256.75;;;7.69;100.00
8941;BME280;4505;43.406;23.226;2023-11-18T01:14:58;99248.25;;;7.67;100.00
8941;BME280;4505;43.406;23.226;2023-11-18T01:17:25;99253.84;;;7.59;100.00
8941;BME280;4505;43.406;23.226;2023-11-18T01:19:51;99255.34;;;7.96;100.00
8941;BME280;4505;43.406;23.226;2023-11-18T01:22:18;99258.63;;;7.80;100.00
8941;BME280;4505;43.406;23.226;2023-11-18T01:24:46;99268.47;;;7.73;100.00
8941;BME280;4505;43.406;23.226;2023-11-18T01:27:13;99273.66;;;8.09;100.00
8941;BME280;4505;43.406;23.226;2023-11-18T01:29:39;99277.59;;;7.77;100.00
8941;BME280;4505;43.406;23.226;2023-11-18T01:32:06;99264.25;;;7.72;100.00
8941;BME280;4505;43.406;23.226;2023-11-18T01:34:34;99276.53;;;7.78;100.00
8941;BME280;4505;43.406;23.226;2023-11-18T01:37:01;99272.75;;;7.74;100.00
8941;BME280;4505;43.406;23.226;2023-11-18T01:39:28;99275.88;;;7.82;100.00
8941;BME280;4505;43.406;23.226;2023-11-18T01:41:56;99296.09;;;7.77;100.00
8941;BME280;4505;43.406;23.226;2023-11-18T01:44:24;99280.00;;;7.78;100.00
8941;BME280;4505;43.406;23.226;2023-11-18T01:46:53;99274.94;;;7.77;100.00
8941;BME280;4505;43.406;23.226;2023-11-18T01:49:20;99289.06;;;7.71;100.00
8941;BME280;4505;43.406;23.226;2023-11-18T01:51:46;99286.44;;;7.82;100.00
8941;BME280;4505;43.406;23.226;2023-11-18T01:54:14;99293.53;;;7.70;100.00
8941;BME280;4505;43.406;23.226;2023-11-18T01:56:44;99278.34;;;7.66;100.00
8941;BME280;4505;43.406;23.226;2023-11-18T01:59:13;99276.72;;;7.65;100.00
8941;BME280;4505;43.406;23.226;2023-11-18T02:01:44;99279.13;;;7.55;100.00
8941;BME280;4505;43.406;23.226;2023-11-18T02:04:13;99269.34;;;7.85;100.00
8941;BME280;4505;43.406;23.226;2023-11-18T02:06:40;99270.91;;;7.74;100.00
8941;BME280;4505;43.406;23.226;2023-11-18T02:09:06;99275.59;;;8.13;100.00
8941;BME280;4505;43.406;23.226;2023-11-18T02:11:35;99272.34;;;8.41;100.00
8941;BME280;4505;43.406;23.226;2023-11-18T02:14:06;99257.06;;;8.02;100.00
8941;BME280;4505;43.406;23.226;2023-11-18T02:16:37;99257.91;;;7.73;100.00
8941;BME280;4505;43.406;23.226;2023-11-18T02:19:04;99251.84;;;7.72;100.00
8941;BME280;4505;43.406;23.226;2023-11-18T02:21:35;99251.94;;;7.77;100.00
8941;BME280;4505;43.406;23.226;2023-11-18T02:24:03;99250.03;;;7.84;100.00
8941;BME280;4505;43.406;23.226;2023-11-18T02:26:31;99264.19;;;7.90;100.00
8941;BME280;4505;43.406;23.226;2023-11-18T02:28:58;99284.97;;;7.86;100.00
8941;BME280;4505;43.406;23.226;2023-11-18T02:31:26;99288.97;;;7.89;100.00
8941;BME280;4505;43.406;23.226;2023-11-18T02:33:54;99277.13;;;7.80;100.00
8941;BME280;4505;43.406;23.226;2023-11-18T02:36:26;99281.47;;;7.74;100.00
8941;BME280;4505;43.406;23.226;2023-11-18T02:39:01;99275.84;;;7.71;100.00
8941;BME280;4505;43.406;23.226;2023-11-18T02:41:33;99272.97;;;7.72;100.00
8941;BME280;4505;43.406;23.226;2023-11-18T02:44:01;99265.47;;;7.69;100.00
8941;BME280;4505;43.406;23.226;2023-11-18T02:46:29;99267.66;;;8.13;100.00
8941;BME280;4505;43.406;23.226;2023-11-18T02:48:56;99282.00;;;7.94;100.00
8941;BME280;4505;43.406;23.226;2023-11-18T02:51:23;99258.78;;;7.96;100.00
8941;BME280;4505;43.406;23.226;2023-11-18T02:53:51;99270.97;;;7.97;100.00
8941;BME280;4505;43.406;23.226;2023-11-18T02:56:18;99267.38;;;7.92;100.00
8941;BME280;4505;43.406;23.226;2023-11-18T02:58:46;99258.22;;;7.94;100.00
8941;BME280;4505;43.406;23.226;2023-11-18T03:01:12;99271.66;;;7.93;100.00
8941;BME280;4505;43.406;23.226;2023-11-18T03:03:39;99259.44;;;7.92;100.00
8941;BME280;4505;43.406;23.226;2023-11-18T03:06:08;99241.41;;;7.89;100.00
8941;BME280;4505;43.406;23.226;2023-11-18T03:08:36;99264.63;;;7.87;100.00
8941;BME280;4505;43.406;23.226;2023-11-18T03:11:03;99243.81;;;7.90;100.00
8941;BME280;4505;43.406;23.226;2023-11-18T03:13:30;99258.75;;;7.85;100.00
8941;BME280;4505;43.406;23.226;2023-11-18T03:15:59;99255.91;;;7.86;100.00
8941;BME280;4505;43.406;23.226;2023-11-18T03:18:25;99267.91;;;7.71;100.00
8941;BME280;4505;43.406;23.226;2023-11-18T03:20:52;99291.59;;;7.77;100.00
8941;BME280;4505;43.406;23.226;2023-11-18T03:23:19;99264.59;;;7.75;100.00
8941;BME280;4505;43.406;23.226;2023-11-18T03:25:46;99284.78;;;7.70;100.00
8941;BME280;4505;43.406;23.226;2023-11-18T03:28:13;99301.47;;;7.70;100.00
8941;BME280;4505;43.406;23.226;2023-11-18T03:30:40;99297.56;;;7.73;100.00
8941;BME280;4505;43.406;23.226;2023-11-18T03:33:08;99295.13;;;7.71;100.00
8941;BME280;4505;43.406;23.226;2023-11-18T03:35:36;99283.28;;;7.62;100.00
8941;BME280;4505;43.406;23.226;2023-11-18T03:38:02;99293.44;;;7.47;100.00
8941;BME280;4505;43.406;23.226;2023-11-18T03:40:29;99281.03;;;7.48;100.00
8941;BME280;4505;43.406;23.226;2023-11-18T03:42:56;99294.91;;;7.43;100.00
8941;BME280;4505;43.406;23.226;2023-11-18T03:45:23;99287.84;;;7.37;100.00
8941;BME280;4505;43.406;23.226;2023-11-18T03:47:50;99274.66;;;7.37;100.00
8941;BME280;4505;43.406;23.226;2023-11-18T03:50:22;99282.69;;;7.31;100.00
8941;BME280;4505;43.406;23.226;2023-11-18T03:52:49;99282.88;;;7.29;100.00
8941;BME280;4505;43.406;23.226;2023-11-18T03:55:16;99275.09;;;7.34;100.00
8941;BME280;4505;43.406;23.226;2023-11-18T03:57:43;99260.56;;;7.43;100.00
8941;BME280;4505;43.406;23.226;2023-11-18T04:00:11;99273.50;;;7.33;100.00
8941;BME280;4505;43.406;23.226;2023-11-18T04:02:38;99300.00;;;7.26;100.00
8941;BME280;4505;43.406;23.226;2023-11-18T04:05:05;99287.22;;;7.42;100.00
8941;BME280;4505;43.406;23.226;2023-11-18T04:07:36;99314.41;;;7.42;100.00
8941;BME280;4505;43.406;23.226;2023-11-18T04:10:03;99298.09;;;7.34;100.00
8941;BME280;4505;43.406;23.226;2023-11-18T04:12:32;99289.13;;;7.35;100.00
8941;BME280;4505;43.406;23.226;2023-11-18T04:15:03;99300.13;;;7.32;100.00
8941;BME280;4505;43.406;23.226;2023-11-18T04:17:32;99290.88;;;7.41;100.00
8941;BME280;4505;43.406;23.226;2023-11-18T04:19:59;99293.72;;;7.39;100.00
8941;BME280;4505;43.406;23.226;2023-11-18T04:22:29;99294.31;;;7.41;100.00
8941;BME280;4505;43.406;23.226;2023-11-18T04:24:57;99296.16;;;7.41;100.00
8941;BME280;4505;43.406;23.226;2023-11-18T04:27:24;99304.75;;;7.36;100.00
8941;BME280;4505;43.406;23.226;2023-11-18T04:29:51;99304.75;;;7.36;100.00
8941;BME280;4505;43.406;23.226;2023-11-18T04:32:17;99290.88;;;7.41;100.00
8941;BME280;4505;43.406;23.226;2023-11-18T04:34:44;99304.44;;;7.44;100.00
8941;BME280;4505;43.406;23.226;2023-11-18T04:37:11;99287.56;;;7.45;100.00
8941;BME280;4505;43.406;23.226;2023-11-18T04:39:37;99293.06;;;7.44;100.00
8941;BME280;4505;43.406;23.226;2023-11-18T04:42:05;99291.22;;;7.44;100.00
8941;BME280;4505;43.406;23.226;2023-11-18T04:44:32;99298.25;;;7.50;100.00
8941;BME280;4505;43.406;23.226;2023-11-18T04:46:58;99290.56;;;7.49;100.00
8941;BME280;4505;43.406;23.226;2023-11-18T04:49:26;99296.88;;;7.48;100.00
8941;BME280;4505;43.406;23.226;2023-11-18T04:51:52;99306.56;;;7.54;100.00
8941;BME280;4505;43.406;23.226;2023-11-18T04:54:19;99332.88;;;7.60;100.00
8941;BME280;4505;43.406;23.226;2023-11-18T04:56:49;99311.38;;;7.57;100.00
8941;BME280;4505;43.406;23.226;2023-11-18T04:59:17;99311.03;;;7.53;100.00
8941;BME280;4505;43.406;23.226;2023-11-18T05:01:47;99306.31;;;7.55;100.00
8941;BME280;4505;43.406;23.226;2023-11-18T05:04:18;99308.81;;;7.98;100.00
8941;BME280;4505;43.406;23.226;2023-11-18T05:06:44;99309.94;;;7.61;100.00
8941;BME280;4505;43.406;23.226;2023-11-18T05:09:11;99319.66;;;7.78;100.00
8941;BME280;4505;43.406;23.226;2023-11-18T05:11:38;99317.56;;;7.51;100.00
8941;BME280;4505;43.406;23.226;2023-11-18T05:14:04;99319.97;;;7.52;100.00
8941;BME280;4505;43.406;23.226;2023-11-18T05:16:33;99322.84;;;7.51;100.00
8941;BME280;4505;43.406;23.226;2023-11-18T05:19:00;99345.31;;;7.42;100.00
8941;BME280;4505;43.406;23.226;2023-11-18T05:21:26;99309.34;;;7.41;100.00
8941;BME280;4505;43.406;23.226;2023-11-18T05:23:53;99318.19;;;7.35;100.00
8941;BME280;4505;43.406;23.226;2023-11-18T05:26:19;99338.34;;;7.29;100.00
8941;BME280;4505;43.406;23.226;2023-11-18T05:28:46;99311.75;;;7.31;100.00
8941;BME280;4505;43.406;23.226;2023-11-18T05:31:15;99302.78;;;7.32;100.00
8941;BME280;4505;43.406;23.226;2023-11-18T05:33:43;99298.94;;;7.27;100.00
8941;BME280;4505;43.406;23.226;2023-11-18T05:36:09;99296.97;;;7.23;100.00
8941;BME280;4505;43.406;23.226;2023-11-18T05:38:36;99298.63;;;7.24;100.00
8941;BME280;4505;43.406;23.226;2023-11-18T05:41:03;99316.06;;;7.25;100.00
8941;BME280;4505;43.406;23.226;2023-11-18T05:43:32;99315.31;;;7.36;100.00
8941;BME280;4505;43.406;23.226;2023-11-18T05:46:05;99299.53;;;7.29;100.00
8941;BME280;4505;43.406;23.226;2023-11-18T05:48:50;99308.06;;;7.32;100.00
8941;BME280;4505;43.406;23.226;2023-11-18T05:51:20;99324.72;;;7.32;100.00
8941;BME280;4505;43.406;23.226;2023-11-18T05:53:47;99301.38;;;7.29;100.00
8941;BME280;4505;43.406;23.226;2023-11-18T05:56:14;99304.81;;;7.29;100.00
8941;BME280;4505;43.406;23.226;2023-11-18T05:58:42;99295.78;;;7.37;100.00
8941;BME280;4505;43.406;23.226;2023-11-18T06:01:09;99304.66;;;7.43;100.00
8941;BME280;4505;43.406;23.226;2023-11-18T06:03:36;99303.53;;;7.50;100.00
8941;BME280;4505;43.406;23.226;2023-11-18T06:06:06;99308.50;;;7.47;100.00
8941;BME280;4505;43.406;23.226;2023-11-18T06:08:32;99303.91;;;7.54;100.00
8941;BME280;4505;43.406;23.226;2023-11-18T06:10:59;99324.69;;;7.50;100.00
8941;BME280;4505;43.406;23.226;2023-11-18T06:13:30;99318.38;;;7.51;100.00
8941;BME280;4505;43.406;23.226;2023-11-18T06:15:57;99337.81;;;7.57;100.00
8941;BME280;4505;43.406;23.226;2023-11-18T06:18:24;99289.25;;;7.58;100.00
8941;BME280;4505;43.406;23.226;2023-11-18T06:20:51;99304.09;;;7.70;100.00
8941;BME280;4505;43.406;23.226;2023-11-18T06:23:19;99316.13;;;7.55;100.00
8941;BME280;4505;43.406;23.226;2023-11-18T06:25:47;99296.63;;;7.67;100.00
8941;BME280;4505;43.406;23.226;2023-11-18T06:28:14;99314.63;;;7.59;100.00
8941;BME280;4505;43.406;23.226;2023-11-18T06:30:41;99295.31;;;7.58;100.00
8941;BME280;4505;43.406;23.226;2023-11-18T06:33:08;99318.31;;;7.69;100.00
8941;BME280;4505;43.406;23.226;2023-11-18T06:35:35;99300.72;;;7.63;100.00
8941;BME280;4505;43.406;23.226;2023-11-18T06:38:05;99325.09;;;7.65;100.00
8941;BME280;4505;43.406;23.226;2023-11-18T06:40:34;99285.47;;;7.65;100.00
8941;BME280;4505;43.406;23.226;2023-11-18T06:43:00;99298.91;;;7.64;100.00
8941;BME280;4505;43.406;23.226;2023-11-18T06:45:28;99299.94;;;7.63;100.00
8941;BME280;4505;43.406;23.226;2023-11-18T06:47:57;99303.59;;;7.62;100.00
8941;BME280;4505;43.406;23.226;2023-11-18T06:50:24;99341.84;;;7.59;100.00
8941;BME280;4505;43.406;23.226;2023-11-18T06:52:52;99343.41;;;7.49;100.00
8941;BME280;4505;43.406;23.226;2023-11-18T06:55:18;99318.16;;;7.53;100.00
8941;BME280;4505;43.406;23.226;2023-11-18T06:57:46;99297.03;;;7.53;100.00
8941;BME280;4505;43.406;23.226;2023-11-18T07:00:13;99311.63;;;7.55;100.00
8941;BME280;4505;43.406;23.226;2023-11-18T07:02:40;99321.72;;;7.58;100.00
8941;BME280;4505;43.406;23.226;2023-11-18T07:05:07;99321.59;;;7.53;100.00
8941;BME280;4505;43.406;23.226;2023-11-18T07:07:34;99335.97;;;7.57;100.00
8941;BME280;4505;43.406;23.226;2023-11-18T07:10:03;99319.22;;;7.63;100.00
8941;BME280;4505;43.406;23.226;2023-11-18T07:12:31;99355.00;;;7.77;100.00
8941;BME280;4505;43.406;23.226;2023-11-18T07:15:00;99323.50;;;7.64;100.00
8941;BME280;4505;43.406;23.226;2023-11-18T07:17:26;99336.03;;;7.69;100.00
8941;BME280;4505;43.406;23.226;2023-11-18T07:19:53;99320.97;;;7.69;100.00
8941;BME280;4505;43.406;23.226;2023-11-18T07:22:20;99330.16;;;7.67;100.00
8941;BME280;4505;43.406;23.226;2023-11-18T07:24:47;99325.09;;;7.65;100.00
8941;BME280;4505;43.406;23.226;2023-11-18T07:27:13;99327.06;;;7.70;100.00
8941;BME280;4505;43.406;23.226;2023-11-18T07:29:41;99329.75;;;7.81;100.00
8941;BME280;4505;43.406;23.226;2023-11-18T07:32:11;99330.44;;;7.77;100.00
8941;BME280;4505;43.406;23.226;2023-11-18T07:34:39;99346.16;;;7.72;100.00
8941;BME280;4505;43.406;23.226;2023-11-18T07:37:06;99358.38;;;7.84;100.00
8941;BME280;4505;43.406;23.226;2023-11-18T07:39:34;99363.47;;;7.68;100.00
8941;BME280;4505;43.406;23.226;2023-11-18T07:42:09;99349.34;;;7.62;100.00
8941;BME280;4505;43.406;23.226;2023-11-18T07:44:36;99367.91;;;7.74;100.00
8941;BME280;4505;43.406;23.226;2023-11-18T07:47:03;99372.22;;;7.68;100.00
8941;BME280;4505;43.406;23.226;2023-11-18T07:49:32;99376.47;;;7.69;100.00
8941;BME280;4505;43.406;23.226;2023-11-18T07:51:58;99371.63;;;7.66;100.00
8941;BME280;4505;43.406;23.226;2023-11-18T07:54:25;99392.75;;;7.66;100.00
8941;BME280;4505;43.406;23.226;2023-11-18T07:56:52;99367.06;;;7.73;100.00
8941;BME280;4505;43.406;23.226;2023-11-18T07:59:19;99386.84;;;7.53;100.00
8941;BME280;4505;43.406;23.226;2023-11-18T08:01:47;99372.16;;;7.57;100.00
8941;BME280;4505;43.406;23.226;2023-11-18T08:04:13;99377.66;;;7.55;100.00
8941;BME280;4505;43.406;23.226;2023-11-18T08:06:42;99372.91;;;7.46;100.00
8941;BME280;4505;43.406;23.226;2023-11-18T08:09:09;99372.91;;;7.46;100.00
8941;BME280;4505;43.406;23.226;2023-11-18T08:11:38;99407.09;;;7.41;100.00
8941;BME280;4505;43.406;23.226;2023-11-18T08:14:06;99362.47;;;7.51;100.00
8941;BME280;4505;43.406;23.226;2023-11-18T08:16:33;99380.22;;;7.62;100.00
8941;BME280;4505;43.406;23.226;2023-11-18T08:18:59;99387.00;;;7.58;100.00
8941;BME280;4505;43.406;23.226;2023-11-18T08:21:27;99401.44;;;7.55;100.00
8941;BME280;4505;43.406;23.226;2023-11-18T08:23:56;99388.16;;;7.62;100.00
8941;BME280;4505;43.406;23.226;2023-11-18T08:26:25;99399.91;;;7.66;100.00
8941;BME280;4505;43.406;23.226;2023-11-18T08:28:51;99416.47;;;7.73;100.00
8941;BME280;4505;43.406;23.226;2023-11-18T08:31:18;99400.63;;;7.73;100.00
8941;BME280;4505;43.406;23.226;2023-11-18T08:33:45;99401.34;;;7.80;100.00
8941;BME280;4505;43.406;23.226;2023-11-18T08:36:11;99428.81;;;7.79;100.00
8941;BME280;4505;43.406;23.226;2023-11-18T08:38:38;99450.47;;;7.51;100.00
8941;BME280;4505;43.406;23.226;2023-11-18T08:41:10;99398.94;;;7.60;100.00
8941;BME280;4505;43.406;23.226;2023-11-18T08:43:37;99423.47;;;7.67;100.00
8941;BME280;4505;43.406;23.226;2023-11-18T08:46:06;99417.22;;;7.62;100.00
8941;BME280;4505;43.406;23.226;2023-11-18T08:48:32;99423.91;;;7.64;100.00
8941;BME280;4505;43.406;23.226;2023-11-18T08:51:00;99422.94;;;7.59;100.00
8941;BME280;4505;43.406;23.226;2023-11-18T08:53:26;99418.63;;;7.64;100.00
8941;BME280;4505;43.406;23.226;2023-11-18T08:55:53;99392.47;;;7.74;100.00
8941;BME280;4505;43.406;23.226;2023-11-18T08:58:21;99403.47;;;7.71;100.00
8941;BME280;4505;43.406;23.226;2023-11-18T09:00:52;99414.13;;;7.65;100.00
8941;BME280;4505;43.406;23.226;2023-11-18T09:03:20;99429.19;;;7.64;100.00
8941;BME280;4505;43.406;23.226;2023-11-18T09:05:54;99442.97;;;7.66;100.00
8941;BME280;4505;43.406;23.226;2023-11-18T09:08:24;99409.97;;;7.75;100.00
8941;BME280;4505;43.406;23.226;2023-11-18T09:10:52;99433.66;;;7.64;100.00
8941;BME280;4505;43.406;23.226;2023-11-18T09:13:21;99466.97;;;7.65;100.00
8941;BME280;4505;43.406;23.226;2023-11-18T09:15:50;99433.50;;;7.77;100.00
8941;BME280;4505;43.406;23.226;2023-11-18T09:18:17;99415.56;;;7.97;100.00
8941;BME280;4505;43.406;23.226;2023-11-18T09:20:45;99442.91;;;7.91;100.00
8941;BME280;4505;43.406;23.226;2023-11-18T09:23:12;99414.78;;;7.60;100.00
8941;BME280;4505;43.406;23.226;2023-11-18T09:25:41;99422.50;;;7.62;100.00
8941;BME280;4505;43.406;23.226;2023-11-18T09:28:07;99416.78;;;7.65;100.00
8941;BME280;4505;43.406;23.226;2023-11-18T09:30:38;99418.56;;;7.71;100.00
8941;BME280;4505;43.406;23.226;2023-11-18T09:33:14;99418.19;;;7.67;100.00
8941;BME280;4505;43.406;23.226;2023-11-18T09:35:50;99401.06;;;7.70;100.00
8941;BME280;4505;43.406;23.226;2023-11-18T09:38:17;99376.69;;;7.68;100.00
8941;BME280;4505;43.406;23.226;2023-11-18T09:40:44;99364.75;;;7.65;100.00
8941;BME280;4505;43.406;23.226;2023-11-18T09:43:11;99387.44;;;7.55;100.00
8941;BME280;4505;43.406;23.226;2023-11-18T09:45:42;99403.00;;;7.63;100.00
8941;BME280;4505;43.406;23.226;2023-11-18T09:48:10;99388.31;;;7.67;100.00
8941;BME280;4505;43.406;23.226;2023-11-18T09:50:43;99415.09;;;7.52;100.00
8941;BME280;4505;43.406;23.226;2023-11-18T09:53:12;99374.78;;;7.75;100.00
8941;BME280;4505;43.406;23.226;2023-11-18T09:55:42;99381.41;;;7.66;100.00
8941;BME280;4505;43.406;23.226;2023-11-18T09:58:13;99376.88;;;7.55;100.00
8941;BME280;4505;43.406;23.226;2023-11-18T10:00:43;99392.66;;;7.43;100.00
8941;BME280;4505;43.406;23.226;2023-11-18T10:03:10;99364.91;;;7.52;100.00
8941;BME280;4505;43.406;23.226;2023-11-18T10:05:41;99390.50;;;7.52;100.00
8941;BME280;4505;43.406;23.226;2023-11-18T10:08:07;99371.22;;;7.51;100.00
8941;BME280;4505;43.406;23.226;2023-11-18T10:10:34;99436.00;;;7.54;100.00
8941;BME280;4505;43.406;23.226;2023-11-18T10:13:02;99400.47;;;7.68;100.00
8941;BME280;4505;43.406;23.226;2023-11-18T10:15:34;99375.97;;;7.43;100.00
8941;BME280;4505;43.406;23.226;2023-11-18T10:18:02;99387.28;;;7.50;100.00
8941;BME280;4505;43.406;23.226;2023-11-18T10:20:45;99415.97;;;7.46;100.00
8941;BME280;4505;43.406;23.226;2023-11-18T10:23:13;99381.88;;;7.45;100.00
8941;BME280;4505;43.406;23.226;2023-11-18T10:25:45;99384.56;;;7.38;100.00
8941;BME280;4505;43.406;23.226;2023-11-18T10:28:22;99374.09;;;7.50;100.00
8941;BME280;4505;43.406;23.226;2023-11-18T10:30:49;99371.28;;;7.45;100.00
8941;BME280;4505;43.406;23.226;2023-11-18T10:33:18;99391.69;;;7.56;100.00
8941;BME280;4505;43.406;23.226;2023-11-18T10:35:48;99379.38;;;7.50;100.00
8941;BME280;4505;43.406;23.226;2023-11-18T10:38:16;99401.22;;;7.57;100.00
8941;BME280;4505;43.406;23.226;2023-11-18T10:40:42;99368.06;;;7.61;100.00
8941;BME280;4505;43.406;23.226;2023-11-18T10:43:09;99376.88;;;7.55;100.00
8941;BME280;4505;43.406;23.226;2023-11-18T10:45:36;99381.63;;;7.64;100.00
8941;BME280;4505;43.406;23.226;2023-11-18T10:48:04;99369.22;;;7.65;100.00
8941;BME280;4505;43.406;23.226;2023-11-18T10:50:33;99376.53;;;8.10;100.00
8941;BME280;4505;43.406;23.226;2023-11-18T10:52:59;99390.78;;;8.09;100.00
8941;BME280;4505;43.406;23.226;2023-11-18T10:55:34;99374.91;;;7.80;100.00
8941;BME280;4505;43.406;23.226;2023-11-18T10:58:01;99358.56;;;7.71;100.00
8941;BME280;4505;43.406;23.226;2023-11-18T11:00:29;99397.53;;;7.76;100.00
8941;BME280;4505;43.406;23.226;2023-11-18T11:03:11;99389.91;;;7.68;100.00
8941;BME280;4505;43.406;23.226;2023-11-18T11:05:40;99415.09;;;7.70;100.00
8941;BME280;4505;43.406;23.226;2023-11-18T11:08:09;99392.91;;;7.71;100.00
8941;BME280;4505;43.406;23.226;2023-11-18T11:10:38;99378.78;;;7.66;100.00
8941;BME280;4505;43.406;23.226;2023-11-18T11:13:07;99374.03;;;7.86;100.00
8941;BME280;4505;43.406;23.226;2023-11-18T11:15:36;99389.19;;;7.79;100.00
8941;BME280;4505;43.406;23.226;2023-11-18T11:18:04;99423.16;;;7.75;100.00
8941;BME280;4505;43.406;23.226;2023-11-18T11:20:34;99367.59;;;7.82;100.00
8941;BME280;4505;43.406;23.226;2023-11-18T11:23:10;99432.19;;;7.86;100.00
8941;BME280;4505;43.406;23.226;2023-11-18T11:25:42;99384.59;;;7.86;100.00
8941;BME280;4505;43.406;23.226;2023-11-18T11:28:10;99393.13;;;7.88;100.00
8941;BME280;4505;43.406;23.226;2023-11-18T11:30:40;99404.16;;;7.85;100.00
8941;BME280;4505;43.406;23.226;2023-11-18T11:33:13;99393.56;;;7.85;100.00
8941;BME280;4505;43.406;23.226;2023-11-18T11:35:43;99398.41;;;8.17;100.00
8941;BME280;4505;43.406;23.226;2023-11-18T11:38:15;99375.56;;;8.23;100.00
8941;BME280;4505;43.406;23.226;2023-11-18T11:40:44;99381.72;;;8.46;100.00
8941;BME280;4505;43.406;23.226;2023-11-18T11:43:11;99424.59;;;8.07;100.00
8941;BME280;4505;43.406;23.226;2023-11-18T11:45:41;99398.38;;;8.35;100.00
8941;BME280;4505;43.406;23.226;2023-11-18T11:48:08;99417.72;;;8.18;100.00
8941;BME280;4505;43.406;23.226;2023-11-18T11:50:50;99402.47;;;8.02;100.00
8941;BME280;4505;43.406;23.226;2023-11-18T11:53:24;99394.31;;;8.03;100.00
8941;BME280;4505;43.406;23.226;2023-11-18T11:55:53;99385.31;;;8.22;100.00
8941;BME280;4505;43.406;23.226;2023-11-18T11:58:30;99393.16;;;7.99;100.00
8941;BME280;4505;43.406;23.226;2023-11-18T12:00:58;99395.28;;;8.09;100.00
8941;BME280;4505;43.406;23.226;2023-11-18T12:03:26;99404.31;;;8.01;100.00
8941;BME280;4505;43.406;23.226;2023-11-18T12:05:54;99389.72;;;7.99;100.00
8941;BME280;4505;43.406;23.226;2023-11-18T12:08:23;99389.72;;;7.99;100.00
8941;BME280;4505;43.406;23.226;2023-11-18T12:10:50;99430.88;;;8.24;100.00
8941;BME280;4505;43.406;23.226;2023-11-18T12:13:18;99382.72;;;8.04;100.00
8941;BME280;4505;43.406;23.226;2023-11-18T12:15:49;99382.53;;;7.88;100.00
8941;BME280;4505;43.406;23.226;2023-11-18T12:18:21;99419.63;;;7.81;100.00
8941;BME280;4505;43.406;23.226;2023-11-18T12:20:49;99392.84;;;7.78;100.00
8941;BME280;4505;43.406;23.226;2023-11-18T12:23:21;99393.72;;;7.72;100.00
8941;BME280;4505;43.406;23.226;2023-11-18T12:25:51;99428.53;;;7.69;100.00
8941;BME280;4505;43.406;23.226;2023-11-18T12:28:27;99416.47;;;7.73;100.00
8941;BME280;4505;43.406;23.226;2023-11-18T12:30:56;99399.59;;;7.74;100.00
8941;BME280;4505;43.406;23.226;2023-11-18T12:39:42;99390.09;;;7.55;100.00
8941;BME280;4505;43.406;23.226;2023-11-18T12:45:08;99391.53;;;7.51;100.00
8941;BME280;4505;43.406;23.226;2023-11-18T12:47:43;99402.09;;;7.51;100.00
8941;BME280;4505;43.406;23.226;2023-11-18T12:50:11;99409.66;;;7.47;100.00
8941;BME280;4505;43.406;23.226;2023-11-18T12:52:51;99405.78;;;7.50;100.00
8941;BME280;4505;43.406;23.226;2023-11-18T12:55:18;99453.19;;;7.45;100.00
8941;BME280;4505;43.406;23.226;2023-11-18T12:57:46;99481.59;;;7.49;100.00
8941;BME280;4505;43.406;23.226;2023-11-18T13:00:15;99393.13;;;7.52;100.00
8941;BME280;4505;43.406;23.226;2023-11-18T13:02:52;99397.56;;;7.58;100.00
8941;BME280;4505;43.406;23.226;2023-11-18T13:05:21;99395.69;;;7.76;100.00
8941;BME280;4505;43.406;23.226;2023-11-18T13:07:55;99444.47;;;7.62;100.00
8941;BME280;4505;43.406;23.226;2023-11-18T13:10:23;99389.47;;;7.71;100.00
8941;BME280;4505;43.406;23.226;2023-11-18T13:12:53;99407.25;;;7.93;100.00
8941;BME280;4505;43.406;23.226;2023-11-18T13:15:29;99413.13;;;7.66;100.00
8941;BME280;4505;43.406;23.226;2023-11-18T13:17:59;99424.25;;;7.68;100.00
8941;BME280;4505;43.406;23.226;2023-11-18T13:20:25;99433.13;;;7.55;100.00
8941;BME280;4505;43.406;23.226;2023-11-18T13:22:52;99435.56;;;7.57;100.00
8941;BME280;4505;43.406;23.226;2023-11-18T13:25:21;99458.84;;;7.48;100.00